Time;durP1;ratioP1;P1;durP2;ratioP2;P2;SDS_P1;SDS_P2;PMS_P1;PMS_P2;Temp;Humidity;BMP_temperature;BMP_pressure;BME280_temperature;BME280_humidity;BME280_pressure;Samples;Min_cycle;Max_cycle;Signal;HPM_P1;HPM_P2
2022/10/03 00:01:42;;;;;;;2.60;0.80;;;20.10;75.30;;;;;;4956245;28;20027;-59
2022/10/03 00:04:42;;;;;;;1.95;0.68;;;20.10;75.30;;;;;;4953859;28;20031;-58
2022/10/03 00:07:40;;;;;;;2.95;0.85;;;20.10;75.20;;;;;;4955868;28;20046;-57
2022/10/03 00:10:14;;;;;;;1.98;0.80;;;20.10;75.20;;;;;;4957907;28;20042;-58
2022/10/03 00:12:41;;;;;;;;;;;20.10;75.20;;;;;;4958002;28;20027;-59
2022/10/03 00:15:14;;;;;;;1.10;0.70;;;20.10;75.20;;;;;;4959049;28;19918;-58
2022/10/03 00:17:49;;;;;;;2.58;0.77;;;20.10;75.30;;;;;;4946025;28;20407;-58
2022/10/03 00:20:18;;;;;;;0.85;0.50;;;20.10;75.30;;;;;;4958762;28;20018;-58
2022/10/03 00:22:50;;;;;;;2.92;0.88;;;20.10;75.30;;;;;;4960862;28;20113;-58
2022/10/03 00:25:27;;;;;;;2.97;0.85;;;20.10;75.40;;;;;;4942194;28;20024;-58
2022/10/03 00:28:02;;;;;;;1.73;0.70;;;20.10;75.20;;;;;;4956705;28;20113;-58
2022/10/03 00:30:27;;;;;;;3.92;0.88;;;20.10;75.30;;;;;;4955508;28;20473;-57
2022/10/03 00:33:15;;;;;;;1.10;0.55;;;20.10;75.30;;;;;;4955928;28;20046;-59
2022/10/03 00:35:48;;;;;;;3.55;0.80;;;20.10;75.30;;;;;;4958698;28;20055;-58
2022/10/03 00:38:43;;;;;;;1.73;0.70;;;20.00;75.20;;;;;;4957634;28;20086;-58
2022/10/03 00:41:27;;;;;;;2.67;0.85;;;20.10;75.30;;;;;;4960804;28;20090;-58
2022/10/03 00:44:23;;;;;;;3.53;1.00;;;20.00;75.30;;;;;;4961124;28;20040;-58
2022/10/03 00:47:12;;;;;;;3.70;1.00;;;20.00;75.20;;;;;;4959321;28;20026;-58
2022/10/03 00:49:51;;;;;;;1.95;0.68;;;20.10;75.30;;;;;;4962268;28;20105;-58
2022/10/03 00:52:36;;;;;;;1.80;0.70;;;20.00;75.30;;;;;;4963767;28;20090;-58
2022/10/03 00:55:52;;;;;;;1.87;0.60;;;20.00;75.20;;;;;;4960164;28;20027;-58
2022/10/03 00:58:26;;;;;;;1.75;0.93;;;20.00;75.20;;;;;;4939414;28;20122;-58
2022/10/03 01:00:56;;;;;;;3.03;0.93;;;20.00;75.20;;;;;;4940911;28;20043;-58
2022/10/03 01:03:28;;;;;;;1.02;0.70;;;20.00;75.20;;;;;;4936208;29;20024;-58
2022/10/03 01:06:14;;;;;;;3.97;0.77;;;20.00;75.20;;;;;;4935943;29;20598;-58
2022/10/03 01:08:58;;;;;;;2.28;0.70;;;20.00;75.20;;;;;;4939442;28;20467;-58
2022/10/03 01:11:52;;;;;;;2.20;0.57;;;20.00;75.20;;;;;;4931391;29;20384;-58
2022/10/03 01:14:42;;;;;;;2.15;0.70;;;20.00;75.20;;;;;;4925097;29;20038;-58
2022/10/03 01:17:37;;;;;;;1.00;0.63;;;20.00;75.20;;;;;;4941045;29;20110;-58
2022/10/03 01:20:26;;;;;;;2.47;0.80;;;20.00;75.20;;;;;;4927182;29;20081;-59
2022/10/03 01:23:10;;;;;;;3.35;0.80;;;20.00;75.20;;;;;;4927393;29;20047;-58
2022/10/03 01:25:52;;;;;;;2.23;0.70;;;20.00;75.20;;;;;;4943834;29;20023;-59
2022/10/03 01:31:24;;;;;;;3.05;0.90;;;19.90;75.20;;;;;;4931299;29;20111;-59
2022/10/03 01:33:59;;;;;;;2.03;0.68;;;19.90;75.10;;;;;;4973113;28;20039;-58
2022/10/03 01:36:32;;;;;;;;;;;19.90;75.10;;;;;;4943370;28;20019;-58
2022/10/03 01:39:13;;;;;;;1.42;0.47;;;19.90;75.10;;;;;;4979868;28;20280;-58
2022/10/03 01:42:38;;;;;;;3.33;0.80;;;19.90;75.10;;;;;;4959841;28;20054;-58
2022/10/03 01:45:29;;;;;;;1.73;0.77;;;19.90;75.10;;;;;;4938820;29;20043;-58
2022/10/03 01:48:01;;;;;;;3.00;0.80;;;19.90;75.20;;;;;;4924320;29;20051;-58
2022/10/03 01:50:47;;;;;;;1.30;0.60;;;19.90;75.10;;;;;;4931977;29;20590;-58
2022/10/03 01:53:24;;;;;;;1.75;0.50;;;19.90;75.10;;;;;;4947525;29;20182;-58
2022/10/03 01:56:02;;;;;;;2.65;0.57;;;19.90;75.10;;;;;;4946778;29;20031;-59
2022/10/03 01:59:03;;;;;;;2.90;0.80;;;19.90;75.10;;;;;;4930752;29;20035;-56
2022/10/03 02:01:52;;;;;;;1.38;0.68;;;19.90;75.10;;;;;;4930501;29;20039;-58
2022/10/03 02:04:39;;;;;;;3.53;0.63;;;19.90;75.10;;;;;;4930260;29;20085;-58
2022/10/03 02:07:07;;;;;;;1.95;0.60;;;19.90;75.00;;;;;;4937886;29;20227;-58
2022/10/03 02:09:41;;;;;;;1.55;0.70;;;19.90;75.00;;;;;;4930181;29;20032;-58
2022/10/03 02:12:09;;;;;;;1.75;0.77;;;19.90;75.00;;;;;;4947075;29;20066;-58
2022/10/03 02:14:55;;;;;;;1.98;0.70;;;19.90;75.10;;;;;;4926430;29;20556;-58
2022/10/03 02:17:46;;;;;;;2.25;0.82;;;19.90;75.10;;;;;;4936917;29;20123;-59
2022/10/03 02:20:33;;;;;;;2.88;0.70;;;19.90;75.00;;;;;;4936772;28;20887;-58
2022/10/03 02:22:59;;;;;;;2.97;0.73;;;19.80;75.00;;;;;;4959462;28;20033;-58
2022/10/03 02:26:13;;;;;;;1.33;0.60;;;19.90;75.00;;;;;;4945970;28;20020;-58
2022/10/03 02:28:54;;;;;;;2.45;0.70;;;19.90;75.00;;;;;;4960387;28;20051;-58
2022/10/03 02:31:37;;;;;;;1.45;0.50;;;19.90;75.00;;;;;;4964703;28;20074;-58
2022/10/03 02:34:31;;;;;;;2.53;0.80;;;19.90;75.00;;;;;;4959172;28;20596;-58
2022/10/03 02:37:14;;;;;;;2.15;0.68;;;19.90;75.00;;;;;;4962455;28;20174;-59
2022/10/03 02:40:18;;;;;;;1.63;0.55;;;19.90;75.00;;;;;;4962656;28;20050;-58
2022/10/03 02:43:08;;;;;;;2.10;0.75;;;19.90;75.00;;;;;;4957360;28;20031;-58
2022/10/03 02:45:37;;;;;;;1.95;0.65;;;19.80;75.90;;;;;;4974694;28;20535;-58
2022/10/03 02:48:41;;;;;;;1.25;0.60;;;19.80;74.90;;;;;;4956892;28;20094;-58
2022/10/03 02:51:34;;;;;;;1.58;0.60;;;19.80;74.90;;;;;;4959113;28;20046;-58
2022/10/03 02:54:15;;;;;;;2.90;0.57;;;19.80;75.00;;;;;;4960664;28;20027;-58
2022/10/03 02:56:55;;;;;;;1.60;0.63;;;19.80;74.90;;;;;;4957612;28;20107;-58
2022/10/03 02:59:54;;;;;;;1.67;0.63;;;19.80;74.90;;;;;;4958647;28;20070;-58
2022/10/03 03:03:00;;;;;;;2.95;0.73;;;19.80;74.90;;;;;;4957303;28;20047;-58
2022/10/03 03:05:49;;;;;;;2.42;0.70;;;19.80;74.90;;;;;;4962607;28;20027;-58
2022/10/03 03:08:35;;;;;;;2.75;1.00;;;19.80;74.90;;;;;;4961865;28;20043;-58
2022/10/03 03:11:10;;;;;;;1.92;0.55;;;19.80;74.90;;;;;;4954177;28;20027;-58
2022/10/03 03:14:09;;;;;;;1.38;0.57;;;19.80;74.90;;;;;;4943292;28;20077;-58
2022/10/03 03:16:38;;;;;;;1.90;0.70;;;19.80;74.90;;;;;;4957673;28;20035;-58
2022/10/03 03:19:16;;;;;;;3.08;0.75;;;19.80;74.90;;;;;;4959512;28;20027;-59
2022/10/03 03:22:33;;;;;;;1.83;0.80;;;19.80;74.90;;;;;;4957917;28;20089;-59
2022/10/03 03:25:07;;;;;;;1.95;0.60;;;19.80;74.90;;;;;;4908268;29;20520;-58
2022/10/03 03:28:00;;;;;;;1.27;0.70;;;19.80;74.80;;;;;;4920400;29;20052;-58
2022/10/03 03:30:44;;;;;;;3.08;0.60;;;19.80;74.90;;;;;;4914858;29;20051;-58
2022/10/03 03:33:33;;;;;;;4.63;0.93;;;19.70;74.90;;;;;;4921849;29;20143;-59
2022/10/03 03:36:16;;;;;;;2.28;0.68;;;19.80;74.90;;;;;;4891439;29;20540;-59
2022/10/03 03:39:03;;;;;;;2.95;0.80;;;19.70;74.80;;;;;;4894338;29;20076;-58
2022/10/03 03:41:57;;;;;;;0.88;0.50;;;19.70;74.80;;;;;;4922134;29;20074;-58
2022/10/03 03:44:48;;;;;;;1.63;0.60;;;19.70;74.80;;;;;;4917609;29;20608;-58
2022/10/03 03:47:45;;;;;;;2.53;0.70;;;19.70;74.80;;;;;;4796321;29;20034;-58
2022/10/03 03:50:39;;;;;;;2.75;0.60;;;19.70;74.90;;;;;;4794767;29;20069;-58
2022/10/03 03:53:23;;;;;;;2.45;0.80;;;19.70;74.90;;;;;;4805210;29;20046;-58
2022/10/03 03:56:10;;;;;;;2.60;0.77;;;19.70;74.90;;;;;;4807521;29;20071;-59
2022/10/03 03:58:39;;;;;;;1.50;0.50;;;19.70;74.80;;;;;;4806509;29;20035;-59
2022/10/03 04:01:32;;;;;;;3.08;0.75;;;19.70;74.90;;;;;;4846011;29;20065;-59
2022/10/03 04:04:35;;;;;;;1.83;0.80;;;19.70;74.80;;;;;;4844165;29;20463;-59
2022/10/03 04:07:35;;;;;;;1.20;0.70;;;19.70;74.80;;;;;;4864081;29;20029;-58
2022/10/03 04:10:26;;;;;;;0.90;0.60;;;19.70;74.80;;;;;;4866363;29;20081;-58
2022/10/03 04:13:18;;;;;;;2.33;0.75;;;19.70;74.90;;;;;;4851082;29;20033;-58
2022/10/03 04:15:55;;;;;;;2.65;0.65;;;19.70;74.90;;;;;;4866035;29;20029;-59
2022/10/03 04:18:57;;;;;;;1.45;0.52;;;19.70;74.90;;;;;;4853482;29;20041;-58
2022/10/03 04:21:39;;;;;;;1.23;0.50;;;19.70;74.80;;;;;;4862910;29;20474;-58
2022/10/03 04:24:20;;;;;;;1.38;0.65;;;19.70;74.90;;;;;;4890638;28;20042;-59
2022/10/03 04:26:58;;;;;;;2.05;0.73;;;19.70;74.80;;;;;;4946486;28;20039;-58
2022/10/03 04:29:46;;;;;;;1.02;0.50;;;19.70;74.80;;;;;;4958783;28;20051;-58
2022/10/03 04:32:40;;;;;;;1.48;0.60;;;19.70;74.90;;;;;;4955392;28;20049;-58
2022/10/03 04:35:39;;;;;;;3.58;0.90;;;19.70;74.80;;;;;;4958730;28;20507;-58
2022/10/03 04:38:38;;;;;;;1.42;0.60;;;19.70;74.90;;;;;;4955916;28;20700;-58
2022/10/03 04:41:28;;;;;;;2.13;0.60;;;19.70;74.80;;;;;;4958867;28;20035;-58
2022/10/03 04:44:31;;;;;;;1.05;0.55;;;19.70;74.90;;;;;;4959883;28;20030;-58
2022/10/03 04:47:05;;;;;;;0.50;0.50;;;19.70;74.80;;;;;;4974884;28;20614;-59
2022/10/03 04:50:16;;;;;;;0.95;0.50;;;19.70;74.80;;;;;;4960893;28;20043;-58
2022/10/03 04:53:16;;;;;;;3.03;0.77;;;19.70;74.80;;;;;;4959139;28;20067;-58
2022/10/03 04:55:47;;;;;;;1.50;0.60;;;19.60;74.70;;;;;;4961261;28;20030;-58
2022/10/03 04:58:37;;;;;;;1.88;0.70;;;19.60;74.80;;;;;;4941021;28;20038;-58
2022/10/03 05:01:19;;;;;;;2.17;0.70;;;19.60;74.90;;;;;;4969437;28;20033;-58
2022/10/03 05:03:48;;;;;;;0.45;0.40;;;19.60;74.80;;;;;;4956569;28;20027;-58
2022/10/03 05:06:32;;;;;;;0.65;0.40;;;19.60;74.80;;;;;;4957676;28;20107;-58
2022/10/03 05:09:23;;;;;;;1.00;0.50;;;19.60;74.80;;;;;;4954865;28;20181;-58
2022/10/03 05:12:05;;;;;;;0.98;0.43;;;19.60;75.90;;;;;;4957947;28;20031;-58
2022/10/03 05:14:54;;;;;;;0.68;0.50;;;19.60;74.90;;;;;;4958408;28;20035;-58
2022/10/03 05:17:26;;;;;;;0.85;0.55;;;19.70;75.00;;;;;;4957186;28;20050;-58
2022/10/03 05:20:30;;;;;;;0.70;0.30;;;19.70;74.90;;;;;;4957871;28;20105;-58
2022/10/03 05:22:59;;;;;;;0.77;0.40;;;19.60;74.80;;;;;;4962411;28;20710;-58
2022/10/03 05:25:53;;;;;;;1.35;0.50;;;19.60;74.90;;;;;;4959474;28;20038;-58
2022/10/03 05:28:49;;;;;;;0.75;0.45;;;19.60;74.80;;;;;;4961754;28;20050;-58
2022/10/03 05:31:29;;;;;;;1.60;0.50;;;19.60;74.80;;;;;;4964162;28;20047;-58
2022/10/03 05:34:20;;;;;;;5.00;0.77;;;19.60;74.80;;;;;;4964123;28;20023;-58
2022/10/03 05:36:58;;;;;;;1.98;0.70;;;19.70;74.90;;;;;;4967355;28;20038;-58
2022/10/03 05:39:33;;;;;;;1.85;0.70;;;19.60;74.90;;;;;;4966327;28;20555;-59
2022/10/03 05:42:20;;;;;;;0.95;0.60;;;19.60;74.90;;;;;;4963643;28;20121;-58
2022/10/03 05:44:55;;;;;;;1.40;0.60;;;19.60;75.00;;;;;;4957761;28;20038;-58
2022/10/03 05:47:44;;;;;;;8.57;1.40;;;19.60;75.20;;;;;;4964911;28;20030;-58
2022/10/03 05:50:33;;;;;;;3.63;1.15;;;19.70;76.30;;;;;;4949939;28;20399;-58
2022/10/03 05:53:16;;;;;;;2.40;0.80;;;19.70;76.20;;;;;;4962829;28;20030;-58
2022/10/03 05:56:06;;;;;;;4.78;1.00;;;19.80;76.20;;;;;;4965662;28;20034;-59
2022/10/03 05:58:37;;;;;;;3.80;1.10;;;19.80;76.40;;;;;;4961641;28;20024;-58
2022/10/03 06:01:09;;;;;;;3.55;1.10;;;19.80;76.30;;;;;;4964668;28;20028;-58
2022/10/03 06:04:01;;;;;;;5.25;0.98;;;19.80;76.30;;;;;;4961946;28;20062;-58
2022/10/03 06:06:42;;;;;;;6.72;1.30;;;19.80;76.40;;;;;;4960877;28;20081;-58
2022/10/03 06:09:29;;;;;;;2.22;1.05;;;19.80;76.20;;;;;;4959172;28;20543;-58
2022/10/03 06:11:58;;;;;;;6.55;1.08;;;19.80;76.30;;;;;;4961992;28;20027;-57
2022/10/03 06:14:50;;;;;;;3.83;0.90;;;19.80;76.20;;;;;;4959029;28;20019;-58
2022/10/03 06:17:42;;;;;;;3.80;0.85;;;19.70;76.10;;;;;;4959119;28;20046;-58
2022/10/03 06:20:29;;;;;;;2.45;0.80;;;19.70;75.90;;;;;;4948875;28;20086;-58
2022/10/03 06:23:15;;;;;;;2.42;0.80;;;19.70;76.00;;;;;;4958979;28;20035;-58
2022/10/03 06:26:06;;;;;;;3.65;0.88;;;19.70;76.00;;;;;;4946221;28;20047;-58
2022/10/03 06:28:55;;;;;;;3.08;0.80;;;19.70;76.10;;;;;;4945321;28;20122;-57
2022/10/03 06:31:31;;;;;;;4.55;1.20;;;19.80;76.40;;;;;;4929289;28;20678;-57
2022/10/03 06:34:33;;;;;;;3.78;0.95;;;19.70;76.20;;;;;;4929854;29;20122;-58
2022/10/03 06:37:14;;;;;;;5.15;0.82;;;19.80;76.30;;;;;;4943537;28;20055;-57
2022/10/03 06:40:16;;;;;;;4.18;1.20;;;19.70;76.30;;;;;;4946610;28;20031;-56
2022/10/03 06:43:09;;;;;;;7.47;1.08;;;19.70;76.30;;;;;;4944823;28;20130;-56
2022/10/03 06:46:03;;;;;;;4.53;1.00;;;19.70;76.20;;;;;;4948935;28;20039;-56
2022/10/03 06:49:00;;;;;;;6.15;1.13;;;19.70;76.30;;;;;;4946400;28;20513;-56
2022/10/03 06:51:50;;;;;;;3.00;0.93;;;19.70;76.20;;;;;;4946967;28;20507;-56
2022/10/03 06:55:06;;;;;;;3.72;0.88;;;19.80;76.40;;;;;;4946603;28;20038;-56
2022/10/03 06:57:53;;;;;;;2.92;0.95;;;19.70;76.30;;;;;;4888545;29;20040;-57
2022/10/03 07:00:31;;;;;;;6.07;1.20;;;19.80;76.40;;;;;;4886993;29;20045;-57
2022/10/03 07:03:37;;;;;;;5.05;1.23;;;19.80;76.10;;;;;;4891740;29;20039;-57
2022/10/03 07:06:19;;;;;;;4.40;1.00;;;19.80;76.30;;;;;;4924589;29;20138;-57
2022/10/03 07:09:05;;;;;;;2.95;0.88;;;19.70;76.40;;;;;;4908454;29;20556;-58
2022/10/03 07:11:34;;;;;;;4.03;0.95;;;19.70;76.30;;;;;;4927013;29;20091;-59
2022/10/03 07:14:15;;;;;;;7.97;1.10;;;19.70;76.30;;;;;;4925929;29;20035;-57
2022/10/03 07:17:06;;;;;;;9.55;1.17;;;19.70;76.20;;;;;;4925990;29;20694;-58
2022/10/03 07:19:51;;;;;;;5.90;1.10;;;19.70;76.30;;;;;;4923394;29;20036;-57
2022/10/03 07:22:37;;;;;;;1.92;0.90;;;19.70;76.30;;;;;;4925964;29;20591;-57
2022/10/03 07:25:04;;;;;;;6.18;1.40;;;19.70;76.20;;;;;;4925108;29;20040;-57
2022/10/03 07:27:41;;;;;;;4.18;1.42;;;19.70;76.40;;;;;;4925807;29;20040;-57
2022/10/03 07:30:09;;;;;;;4.68;1.63;;;19.70;76.30;;;;;;4923949;29;20035;-57
2022/10/03 07:33:02;;;;;;;6.25;1.40;;;19.70;76.30;;;;;;4961921;28;20087;-57
2022/10/03 07:38:58;;;;;;;9.23;1.67;;;19.70;76.30;;;;;;4962504;28;20502;-57
2022/10/03 07:41:46;;;;;;;4.93;1.33;;;19.70;76.20;;;;;;4964240;28;20077;-57
2022/10/03 07:44:32;;;;;;;7.38;1.33;;;19.70;76.20;;;;;;4959159;28;20054;-59
2022/10/03 07:47:25;;;;;;;5.78;1.25;;;19.70;76.20;;;;;;4959760;28;20071;-57
2022/10/03 07:50:28;;;;;;;3.55;1.60;;;19.70;76.30;;;;;;4964239;28;20031;-56
2022/10/03 07:53:17;;;;;;;7.13;1.45;;;19.70;76.50;;;;;;4962106;28;20027;-57
2022/10/03 07:55:49;;;;;;;6.75;1.60;;;19.70;76.50;;;;;;4964101;28;20042;-57
2022/10/03 07:58:27;;;;;;;6.70;1.30;;;19.70;76.50;;;;;;4961963;28;20399;-57
2022/10/03 08:01:14;;;;;;;5.50;1.60;;;19.70;76.40;;;;;;4956307;28;20027;-57
2022/10/03 08:03:42;;;;;;;4.47;1.20;;;19.70;76.70;;;;;;4960486;28;20116;-57
2022/10/03 08:06:22;;;;;;;8.35;1.73;;;19.70;76.20;;;;;;4962770;28;20026;-57
2022/10/03 08:08:56;;;;;;;5.60;1.45;;;19.70;76.40;;;;;;4947393;28;20038;-57
2022/10/03 08:11:22;;;;;;;4.47;1.33;;;19.70;76.40;;;;;;4958800;28;20125;-57
2022/10/03 08:14:12;;;;;;;4.95;1.30;;;19.80;76.40;;;;;;4963068;28;20121;-57
2022/10/03 08:17:12;;;;;;;6.95;1.35;;;19.80;76.40;;;;;;4962944;28;20114;-57
2022/10/03 08:19:50;;;;;;;6.53;1.55;;;19.80;76.40;;;;;;4963002;28;20509;-56
2022/10/03 08:23:07;;;;;;;7.22;1.60;;;19.80;76.40;;;;;;4966197;28;20034;-57
2022/10/03 08:25:40;;;;;;;7.22;1.80;;;19.80;76.40;;;;;;4961978;28;20038;-57
2022/10/03 08:28:30;;;;;;;6.55;1.58;;;19.80;76.40;;;;;;4942308;28;20563;-56
2022/10/03 08:31:26;;;;;;;4.93;1.50;;;19.90;76.40;;;;;;4962390;28;20049;-57
2022/10/03 08:34:10;;;;;;;4.25;1.38;;;19.90;76.40;;;;;;4956139;28;20034;-57
2022/10/03 08:36:50;;;;;;;4.60;1.63;;;19.90;76.40;;;;;;4957783;28;20042;-56
2022/10/03 08:40:00;;;;;;;6.93;1.60;;;19.90;76.30;;;;;;4964833;28;20041;-57
2022/10/03 08:42:44;;;;;;;8.50;1.70;;;19.90;76.40;;;;;;4956772;28;20047;-57
2022/10/03 08:45:37;;;;;;;4.70;1.67;;;19.90;76.30;;;;;;4960312;28;20042;-56
2022/10/03 08:48:25;;;;;;;9.40;1.90;;;20.00;76.40;;;;;;4957285;28;20055;-56
2022/10/03 08:51:31;;;;;;;6.68;1.73;;;20.00;76.30;;;;;;4960126;28;20043;-57
2022/10/03 08:54:13;;;;;;;5.75;2.10;;;20.00;76.40;;;;;;4903266;29;20044;-57
2022/10/03 08:56:57;;;;;;;8.52;2.08;;;19.90;76.30;;;;;;4901140;29;20183;-59
2022/10/03 08:59:23;;;;;;;9.27;2.30;;;20.00;76.30;;;;;;4904167;29;20036;-57
2022/10/03 09:02:00;;;;;;;6.43;1.85;;;20.00;76.50;;;;;;4906408;29;20056;-58
2022/10/03 09:04:50;;;;;;;7.10;2.28;;;20.00;76.50;;;;;;4909379;29;20040;-58
2022/10/03 09:07:26;;;;;;;12.60;2.78;;;20.10;76.40;;;;;;4901727;29;20071;-57
2022/10/03 09:09:52;;;;;;;10.10;2.13;;;20.10;76.30;;;;;;4905254;29;20592;-56
2022/10/03 09:12:48;;;;;;;6.38;2.10;;;20.20;76.60;;;;;;4903349;29;20050;-58
2022/10/03 09:15:49;;;;;;;12.70;2.42;;;20.20;76.50;;;;;;4902161;29;20150;-58
2022/10/03 09:18:25;;;;;;;9.82;2.05;;;20.20;76.50;;;;;;4890745;29;20040;-59
2022/10/03 09:21:14;;;;;;;6.00;2.03;;;20.20;76.50;;;;;;4905862;29;20029;-59
2022/10/03 09:23:50;;;;;;;7.22;2.28;;;20.20;76.40;;;;;;4894180;29;20580;-58
2022/10/03 09:26:19;;;;;;;10.57;2.40;;;20.20;76.30;;;;;;4890971;29;20115;-59
2022/10/03 09:28:46;;;;;;;8.32;2.60;;;20.10;76.30;;;;;;4899048;29;20048;-59
2022/10/03 09:31:12;;;;;;;10.10;2.50;;;20.20;76.40;;;;;;4945122;28;20509;-58
2022/10/03 09:33:47;;;;;;;9.60;3.05;;;20.10;75.70;;;;;;4968472;28;20031;-58
2022/10/03 09:36:31;;;;;;;;;;;20.10;75.10;;;;;;4965403;28;20029;-58
2022/10/03 09:39:36;;;;;;;12.50;2.80;;;20.00;75.10;;;;;;4966232;28;20044;-59
2022/10/03 09:42:27;;;;;;;5.20;2.20;;;19.90;74.70;;;;;;4983860;28;20077;-60
2022/10/03 09:45:13;;;;;;;7.50;2.60;;;19.90;74.40;;;;;;4972937;28;20031;-59
2022/10/03 09:48:07;;;;;;;7.72;2.60;;;19.90;73.90;;;;;;4970413;28;20085;-57
2022/10/03 09:51:00;;;;;;;8.32;2.50;;;19.90;74.20;;;;;;4966401;28;20548;-58
2022/10/03 09:53:44;;;;;;;9.75;2.80;;;19.90;74.90;;;;;;4974863;28;20210;-58
2022/10/03 09:56:29;;;;;;;7.60;2.30;;;19.90;74.10;;;;;;4965793;28;20483;-58
2022/10/03 09:59:13;;;;;;;10.85;2.42;;;19.90;73.80;;;;;;4964543;28;20030;-58
2022/10/03 10:01:42;;;;;;;6.60;2.20;;;19.90;73.80;;;;;;4969320;28;20088;-59
2022/10/03 10:04:29;;;;;;;6.40;2.30;;;19.90;73.50;;;;;;4963236;28;20107;-59
2022/10/03 10:07:14;;;;;;;7.47;2.08;;;19.90;73.30;;;;;;4966445;28;20027;-58
2022/10/03 10:09:45;;;;;;;7.38;1.92;;;19.90;72.80;;;;;;4971668;28;20503;-58
2022/10/03 10:12:17;;;;;;;7.05;2.00;;;19.90;72.70;;;;;;4971324;28;20050;-58
2022/10/03 10:14:52;;;;;;;8.02;2.17;;;19.90;72.90;;;;;;4974383;28;20026;-59
2022/10/03 10:17:35;;;;;;;5.68;1.70;;;19.80;72.50;;;;;;4964532;28;20035;-59
2022/10/03 10:21:02;;;;;;;3.88;1.63;;;19.90;72.60;;;;;;4967717;28;20116;-58
2022/10/03 10:23:37;;;;;;;4.40;1.73;;;19.90;72.90;;;;;;4969889;28;20027;-58
2022/10/03 10:26:08;;;;;;;6.60;2.08;;;19.90;72.90;;;;;;4966708;28;20031;-59
2022/10/03 10:28:52;;;;;;;4.50;1.83;;;20.00;73.10;;;;;;4970582;28;20035;-59
2022/10/03 10:31:39;;;;;;;4.70;1.70;;;20.00;73.00;;;;;;4967550;28;20049;-60
2022/10/03 10:34:37;;;;;;;4.18;1.55;;;20.00;73.00;;;;;;4960160;28;20106;-60
2022/10/03 10:37:03;;;;;;;6.25;1.70;;;20.10;72.90;;;;;;4952609;28;20102;-60
2022/10/03 10:40:00;;;;;;;5.47;1.70;;;20.10;72.90;;;;;;4962308;28;22593;-60
2022/10/03 10:43:15;;;;;;;5.10;1.67;;;20.10;72.90;;;;;;4963945;28;20043;-60
2022/10/03 10:45:59;;;;;;;6.65;1.42;;;20.10;72.80;;;;;;4963035;28;20412;-60
2022/10/03 10:49:04;;;;;;;5.78;1.60;;;20.10;72.90;;;;;;4962054;28;20503;-60
2022/10/03 10:52:00;;;;;;;5.85;1.73;;;20.10;72.90;;;;;;4957170;28;20043;-60
2022/10/03 10:54:41;;;;;;;6.00;1.80;;;20.10;72.90;;;;;;4966280;28;20027;-60
2022/10/03 10:57:10;;;;;;;6.32;1.63;;;20.10;72.90;;;;;;4962707;28;20033;-60
2022/10/03 10:59:51;;;;;;;5.90;1.67;;;20.10;72.70;;;;;;4962869;28;20419;-60
2022/10/03 11:02:45;;;;;;;5.82;1.75;;;20.10;72.80;;;;;;4965893;28;20037;-60
2022/10/03 11:05:35;;;;;;;4.70;1.67;;;20.10;72.80;;;;;;4965340;28;20383;-59
2022/10/03 11:08:36;;;;;;;3.80;1.63;;;20.10;72.70;;;;;;4963537;28;20114;-59
2022/10/03 11:11:23;;;;;;;6.07;1.75;;;20.10;72.60;;;;;;4964541;28;20086;-59
2022/10/03 11:14:06;;;;;;;6.22;1.70;;;20.10;72.60;;;;;;4963282;28;20035;-59
2022/10/03 11:16:57;;;;;;;5.47;1.65;;;20.10;72.50;;;;;;4960553;28;20032;-60
2022/10/03 11:19:48;;;;;;;7.35;1.65;;;20.10;72.60;;;;;;4963050;28;20089;-59
2022/10/03 11:22:45;;;;;;;6.72;1.73;;;20.10;72.40;;;;;;4981620;28;20027;-59
2022/10/03 11:25:11;;;;;;;6.93;1.48;;;20.10;72.30;;;;;;4962557;28;20027;-59
2022/10/03 11:28:18;;;;;;;6.03;1.60;;;20.10;72.30;;;;;;4962384;28;20403;-59
2022/10/03 11:31:14;;;;;;;4.28;1.58;;;20.10;72.40;;;;;;4960215;28;20055;-60
2022/10/03 11:34:21;;;;;;;7.28;1.50;;;20.10;72.30;;;;;;4960359;28;20027;-59
2022/10/03 11:37:20;;;;;;;3.65;1.48;;;20.20;72.30;;;;;;4964052;28;20046;-59
2022/10/03 11:40:00;;;;;;;3.33;1.35;;;20.20;72.30;;;;;;4960628;28;20404;-59
2022/10/03 11:42:40;;;;;;;4.50;1.50;;;20.10;72.10;;;;;;4960288;28;20031;-59
2022/10/03 11:45:15;;;;;;;4.68;1.60;;;20.10;72.10;;;;;;4956879;28;20519;-60
2022/10/03 11:48:00;;;;;;;;;;;20.10;72.10;;;;;;4942040;28;20049;-60
2022/10/03 11:50:41;;;;;;;3.63;1.67;;;20.20;72.20;;;;;;4958888;28;19911;-59
2022/10/03 11:53:15;;;;;;;2.80;1.20;;;20.10;72.10;;;;;;4944232;28;20031;-59
2022/10/03 11:55:59;;;;;;;4.10;1.60;;;20.10;72.10;;;;;;4960135;28;20109;-59
2022/10/03 11:58:45;;;;;;;4.63;1.30;;;20.10;72.10;;;;;;4942018;28;20078;-60
2022/10/03 12:01:36;;;;;;;3.50;1.35;;;20.10;72.10;;;;;;4959291;28;20034;-59
2022/10/03 12:04:08;;;;;;;3.28;1.30;;;20.10;72.10;;;;;;4965061;28;20439;-59
2022/10/03 12:10:04;;;;;;;4.78;1.50;;;20.10;72.00;;;;;;4964396;28;22003;-59
2022/10/03 12:12:42;;;;;;;4.75;1.60;;;20.10;72.10;;;;;;4961208;28;20026;-59
2022/10/03 12:15:29;;;;;;;4.25;1.25;;;20.10;71.90;;;;;;4963809;28;20561;-60
2022/10/03 12:18:32;;;;;;;4.32;1.45;;;20.10;72.00;;;;;;4964046;28;20035;-59
2022/10/03 12:21:09;;;;;;;3.30;1.20;;;20.10;72.00;;;;;;4960798;28;20038;-59
2022/10/03 12:23:53;;;;;;;4.03;1.30;;;20.10;71.90;;;;;;4957163;28;20030;-60
2022/10/03 12:26:46;;;;;;;2.78;1.20;;;20.10;71.90;;;;;;4960023;28;20122;-60
2022/10/03 12:29:13;;;;;;;2.88;1.40;;;20.10;71.70;;;;;;4958932;28;20054;-60
2022/10/03 12:32:01;;;;;;;3.40;1.30;;;20.10;71.60;;;;;;4979327;28;20070;-60
2022/10/03 12:34:40;;;;;;;3.50;1.10;;;20.10;71.50;;;;;;4961663;28;20030;-59
2022/10/03 12:37:33;;;;;;;2.88;1.25;;;20.10;71.50;;;;;;4960346;28;20547;-59
2022/10/03 12:40:21;;;;;;;2.40;1.30;;;20.10;71.50;;;;;;4980978;28;20125;-60
2022/10/03 12:43:05;;;;;;;4.50;1.70;;;20.10;71.40;;;;;;4957022;28;20036;-59
2022/10/03 12:45:37;;;;;;;3.08;1.42;;;20.10;71.50;;;;;;4964254;28;20039;-59
2022/10/03 12:48:21;;;;;;;3.75;1.33;;;20.10;71.40;;;;;;4960123;28;20443;-59
2022/10/03 12:50:49;;;;;;;4.15;1.48;;;20.10;71.40;;;;;;4959167;28;20384;-60
2022/10/03 12:53:16;;;;;;;2.78;1.40;;;20.10;71.40;;;;;;4957962;28;20027;-59
2022/10/03 12:56:13;;;;;;;2.78;1.38;;;20.10;71.40;;;;;;4961917;28;20380;-60
2022/10/03 12:58:38;;;;;;;2.80;1.35;;;20.10;71.40;;;;;;4955705;28;20046;-60
2022/10/03 13:01:50;;;;;;;3.03;1.25;;;20.10;71.50;;;;;;4963453;28;20019;-60
2022/10/03 13:04:20;;;;;;;2.60;1.40;;;20.10;71.50;;;;;;4923908;29;20059;-59
2022/10/03 13:06:58;;;;;;;4.60;1.40;;;20.10;71.80;;;;;;4908124;29;20174;-60
2022/10/03 13:09:53;;;;;;;4.88;1.58;;;20.30;71.80;;;;;;4909310;29;20074;-60
2022/10/03 13:12:39;;;;;;;7.85;1.40;;;20.30;71.80;;;;;;4914376;29;20071;-60
2022/10/03 13:15:33;;;;;;;11.43;2.30;;;20.40;71.70;;;;;;4926882;29;20086;-59
2022/10/03 13:18:10;;;;;;;9.52;2.05;;;20.40;72.90;;;;;;4924636;29;20038;-59
2022/10/03 13:20:38;;;;;;;7.68;1.83;;;20.40;71.60;;;;;;4922896;29;20040;-59
2022/10/03 13:23:29;;;;;;;4.97;1.60;;;20.50;71.70;;;;;;4906775;29;20028;-59
2022/10/03 13:26:31;;;;;;;9.18;1.80;;;20.40;71.50;;;;;;4926531;29;20036;-59
2022/10/03 13:29:11;;;;;;;7.13;1.73;;;20.50;71.40;;;;;;4911367;29;20561;-59
2022/10/03 13:32:06;;;;;;;7.78;1.80;;;20.50;71.20;;;;;;4909924;29;20552;-60
2022/10/03 13:34:43;;;;;;;6.65;2.00;;;20.50;71.30;;;;;;4923715;29;20039;-59
2022/10/03 13:37:15;;;;;;;6.70;1.42;;;20.50;71.10;;;;;;4910868;29;20488;-59
2022/10/03 13:39:53;;;;;;;5.70;1.58;;;20.50;71.10;;;;;;4907115;29;20036;-60
2022/10/03 13:42:39;;;;;;;5.22;1.67;;;20.50;71.10;;;;;;4961808;28;20043;-59
2022/10/03 13:45:14;;;;;;;6.20;1.52;;;20.50;71.10;;;;;;4963059;28;20023;-60
2022/10/03 13:47:57;;;;;;;5.93;1.63;;;20.50;71.10;;;;;;4950115;28;20399;-60
2022/10/03 13:50:35;;;;;;;4.82;1.67;;;20.50;71.10;;;;;;4967717;28;20419;-60
2022/10/03 13:53:24;;;;;;;5.43;1.60;;;20.50;71.10;;;;;;4980489;28;20097;-59
2022/10/03 13:55:51;;;;;;;4.15;1.67;;;20.50;71.00;;;;;;4959667;28;20074;-60
2022/10/03 13:58:17;;;;;;;5.05;1.52;;;20.50;71.00;;;;;;4960705;28;20027;-59
2022/10/03 14:00:57;;;;;;;7.72;1.80;;;20.50;71.10;;;;;;4961388;28;20542;-60
2022/10/03 14:03:30;;;;;;;5.50;1.63;;;20.50;71.00;;;;;;4968033;28;20554;-59
2022/10/03 14:06:02;;;;;;;3.90;1.70;;;20.50;71.00;;;;;;4965696;28;20049;-59
2022/10/03 14:08:46;;;;;;;6.05;1.80;;;20.50;71.00;;;;;;4961122;28;20221;-60
2022/10/03 14:11:21;;;;;;;7.00;1.80;;;20.50;71.00;;;;;;4962566;28;20035;-60
2022/10/03 14:13:47;;;;;;;5.88;1.88;;;20.50;71.00;;;;;;4964317;28;20117;-59
2022/10/03 14:16:29;;;;;;;9.57;2.83;;;20.60;71.10;;;;;;4962967;28;20532;-60
2022/10/03 14:19:23;;;;;;;7.65;2.30;;;20.60;71.10;;;;;;4964446;28;20466;-59
2022/10/03 14:22:11;;;;;;;6.25;2.30;;;20.60;70.90;;;;;;4965910;28;20027;-59
2022/10/03 14:24:38;;;;;;;8.75;2.30;;;20.60;71.20;;;;;;4963188;28;20142;-59
2022/10/03 14:27:28;;;;;;;5.15;2.10;;;20.60;71.50;;;;;;4964963;28;20027;-60
2022/10/03 14:30:15;;;;;;;8.63;2.30;;;20.60;71.80;;;;;;4967739;28;20133;-60